Time;durP1;ratioP1;P1;durP2;ratioP2;P2;SDS_P1;SDS_P2;PMS_P1;PMS_P2;Temp;Humidity;BMP_temperature;BMP_pressure;BME280_temperature;BME280_humidity;BME280_pressure;Samples;Min_cycle;Max_cycle;Signal;HPM_P1;HPM_P2
2024/04/07 00:01:26;;;;;;;11.73;2.10;;;;;;;13.05;100.00;99945.53;5044343;28;20507;-77
2024/04/07 00:03:52;;;;;;;10.07;1.90;;;;;;;13.04;100.00;99950.28;5024079;28;20505;-77
2024/04/07 00:06:17;;;;;;;10.98;2.00;;;;;;;12.95;100.00;99947.47;5042037;28;20090;-76
2024/04/07 00:08:46;;;;;;;12.90;2.13;;;;;;;12.95;100.00;99963.34;5011835;28;20374;-76
2024/04/07 00:11:11;;;;;;;8.82;1.80;;;;;;;12.88;100.00;99963.84;5052267;28;20083;-76
2024/04/07 00:13:37;;;;;;;7.97;1.83;;;;;;;12.89;100.00;99964.66;5043767;28;20080;-77
2024/04/07 00:16:02;;;;;;;9.48;2.20;;;;;;;12.86;100.00;99968.91;5024134;28;20036;-77
2024/04/07 00:18:28;;;;;;;10.00;2.08;;;;;;;12.82;100.00;99967.09;5058673;28;20043;-76
2024/04/07 00:21:01;;;;;;;11.50;2.40;;;;;;;12.79;100.00;99973.28;5027389;28;20044;-77
2024/04/07 00:23:27;;;;;;;11.98;2.40;;;;;;;12.75;100.00;99984.25;5059020;28;20039;-77
2024/04/07 00:25:52;;;;;;;13.10;2.30;;;;;;;12.68;100.00;99981.94;5042606;28;20078;-77
2024/04/07 00:28:18;;;;;;;9.40;1.55;;;;;;;12.68;100.00;99983.94;5054424;28;20037;-76
2024/04/07 00:30:44;;;;;;;8.30;2.05;;;;;;;12.64;100.00;99985.69;5043344;28;20040;-77
2024/04/07 00:33:09;;;;;;;7.38;1.85;;;;;;;12.60;100.00;99995.84;5043222;28;20029;-76
2024/04/07 00:35:35;;;;;;;16.20;2.95;;;;;;;12.59;100.00;100003.38;5015906;28;20033;-77
2024/04/07 00:38:00;;;;;;;14.43;2.08;;;;;;;12.52;100.00;100012.19;5010691;28;20265;-76
2024/04/07 00:40:26;;;;;;;13.13;1.80;;;;;;;12.52;100.00;100000.22;5077784;28;20043;-76
2024/04/07 00:42:52;;;;;;;10.75;2.13;;;;;;;12.53;100.00;100008.25;5026529;28;20041;-77
2024/04/07 00:45:18;;;;;;;10.00;1.90;;;;;;;12.46;100.00;100010.69;5011259;28;20052;-76
2024/04/07 00:47:43;;;;;;;9.32;1.65;;;;;;;12.42;100.00;100006.06;5026703;28;20040;-76
2024/04/07 00:50:09;;;;;;;11.52;2.40;;;;;;;12.35;100.00;100005.69;5024627;28;20473;-77
2024/04/07 00:52:34;;;;;;;14.32;2.05;;;;;;;12.33;100.00;100006.00;5018746;28;20040;-77
2024/04/07 00:55:02;;;;;;;10.57;2.30;;;;;;;12.35;100.00;100000.13;5043162;28;20032;-77
2024/04/07 00:57:29;;;;;;;14.20;2.72;;;;;;;12.25;100.00;99998.41;5042514;28;20067;-76
2024/04/07 00:59:55;;;;;;;15.02;2.30;;;;;;;12.24;100.00;99994.81;5043007;28;20037;-76
2024/04/07 01:02:20;;;;;;;16.15;2.60;;;;;;;12.26;100.00;99995.31;5042692;28;20094;-76
2024/04/07 01:04:46;;;;;;;10.20;2.05;;;;;;;12.22;100.00;100002.66;5009924;28;20066;-76
2024/04/07 01:07:11;;;;;;;14.55;2.28;;;;;;;12.14;100.00;100000.63;5027709;28;20036;-76
2024/04/07 01:09:37;;;;;;;11.88;2.20;;;;;;;12.13;100.00;99996.22;5050456;28;20036;-76
2024/04/07 01:12:12;;;;;;;12.07;1.90;;;;;;;12.11;100.00;100001.28;5059085;28;20037;-77
2024/04/07 01:14:38;;;;;;;12.35;2.13;;;;;;;12.07;100.00;100003.06;5042006;28;20047;-76
2024/04/07 01:17:08;;;;;;;11.45;2.10;;;;;;;12.02;100.00;100005.97;5059405;28;20033;-76
2024/04/07 01:19:33;;;;;;;17.35;2.45;;;;;;;11.97;100.00;99995.75;5042779;28;20037;-76
2024/04/07 01:21:59;;;;;;;13.15;2.35;;;;;;;11.96;100.00;100012.78;5009548;28;20041;-76
2024/04/07 01:24:24;;;;;;;14.27;2.25;;;;;;;11.92;100.00;100001.44;5043138;28;20519;-77
2024/04/07 01:26:50;;;;;;;11.60;2.30;;;;;;;11.94;100.00;99998.38;5042600;28;20416;-76
2024/04/07 01:29:15;;;;;;;9.43;1.98;;;;;;;11.92;100.00;100003.41;5025978;28;20094;-76
2024/04/07 01:31:41;;;;;;;11.07;2.05;;;;;;;11.88;100.00;99992.09;5024902;28;20543;-76
2024/04/07 01:34:06;;;;;;;13.43;2.28;;;;;;;11.85;100.00;99995.50;5025922;28;20036;-76
2024/04/07 01:36:32;;;;;;;11.27;1.85;;;;;;;11.78;100.00;100004.28;5009637;28;20047;-77
2024/04/07 01:38:58;;;;;;;14.15;2.45;;;;;;;11.79;100.00;100000.34;5025432;28;20033;-76
2024/04/07 01:41:23;;;;;;;15.63;2.40;;;;;;;11.70;100.00;100001.41;5025508;28;20107;-76
2024/04/07 01:43:49;;;;;;;10.02;1.90;;;;;;;11.73;100.00;100001.63;5024726;28;20033;-77
2024/04/07 01:46:14;;;;;;;13.82;2.20;;;;;;;11.66;100.00;100005.97;5042398;28;20041;-77
2024/04/07 01:48:40;;;;;;;14.40;2.55;;;;;;;11.64;100.00;100009.03;5022948;28;20033;-77
2024/04/07 01:51:07;;;;;;;14.27;2.10;;;;;;;11.58;100.00;100008.34;5042575;28;20098;-76
2024/04/07 01:53:32;;;;;;;11.63;2.10;;;;;;;11.56;100.00;100012.56;5041599;28;20041;-76
2024/04/07 01:55:58;;;;;;;11.18;2.28;;;;;;;11.51;100.00;100015.47;5041489;28;20045;-76
2024/04/07 01:58:23;;;;;;;11.73;1.95;;;;;;;11.51;100.00;100009.91;5024636;28;20033;-76
2024/04/07 02:00:49;;;;;;;12.80;2.17;;;;;;;11.47;100.00;100008.88;5025881;28;20127;-76
2024/04/07 02:03:14;;;;;;;13.07;2.22;;;;;;;11.40;100.00;100018.47;5025077;28;20053;-77
2024/04/07 02:05:40;;;;;;;15.18;2.33;;;;;;;11.40;100.00;100024.03;5008557;28;20040;-76
2024/04/07 02:08:05;;;;;;;15.77;2.10;;;;;;;11.37;100.00;100024.66;5051027;28;20039;-76
2024/04/07 02:10:32;;;;;;;9.32;2.35;;;;;;;11.37;100.00;100032.19;5024716;28;20036;-76
2024/04/07 02:12:57;;;;;;;17.08;2.47;;;;;;;11.39;100.00;100027.13;5057538;28;20036;-77
2024/04/07 02:15:24;;;;;;;19.88;2.55;;;;;;;11.35;100.00;100032.50;5012872;28;20036;-76
2024/04/07 02:17:50;;;;;;;17.27;2.55;;;;;;;11.34;100.00;100035.59;5009025;28;20135;-77
2024/04/07 02:20:16;;;;;;;13.93;2.30;;;;;;;11.30;100.00;100037.34;5041581;28;20060;-76
2024/04/07 02:22:42;;;;;;;14.27;2.40;;;;;;;11.26;100.00;100047.44;5057827;28;20032;-77
2024/04/07 02:25:07;;;;;;;9.27;1.75;;;;;;;11.22;100.00;100041.66;5024878;28;20892;-77
2024/04/07 02:27:33;;;;;;;15.00;2.78;;;;;;;11.21;100.00;100036.44;5040899;28;20048;-76
2024/04/07 02:29:58;;;;;;;14.27;2.60;;;;;;;11.17;100.00;100038.97;5041615;28;20048;-77
2024/04/07 02:32:24;;;;;;;17.08;2.47;;;;;;;11.16;100.00;100031.78;5024834;28;20098;-77
2024/04/07 02:34:49;;;;;;;18.17;2.55;;;;;;;11.17;100.00;100030.63;5041258;28;20044;-76
2024/04/07 02:37:15;;;;;;;15.10;2.30;;;;;;;11.12;100.00;100037.16;5041538;28;20086;-76
2024/04/07 02:39:40;;;;;;;16.25;2.58;;;;;;;11.13;100.00;100035.19;5041407;28;20055;-77
2024/04/07 02:42:06;;;;;;;18.55;3.03;;;;;;;11.09;100.00;100036.94;5040839;28;20405;-76
2024/04/07 02:49:59;;;;;;;16.42;2.47;;;;;;;11.02;100.00;100039.31;5035840;28;20067;-76
2024/04/07 02:52:25;;;;;;;10.93;2.22;;;;;;;10.99;100.00;100048.25;5041055;28;20041;-77
2024/04/07 02:54:50;;;;;;;12.45;1.98;;;;;;;10.99;100.00;100045.47;5041142;28;20032;-77
2024/04/07 02:57:16;;;;;;;24.88;2.88;;;;;;;10.94;100.00;100041.66;5056215;28;20117;-76
2024/04/07 02:59:41;;;;;;;16.40;2.97;;;;;;;10.94;100.00;100050.00;5024646;28;20423;-77
2024/04/07 03:02:07;;;;;;;18.17;2.67;;;;;;;10.94;100.00;100044.44;5075220;28;20079;-76
2024/04/07 03:04:33;;;;;;;12.43;2.22;;;;;;;10.91;100.00;100049.78;5057489;28;20062;-76
2024/04/07 03:07:00;;;;;;;14.68;2.45;;;;;;;10.89;100.00;100066.78;5040736;28;20497;-76
2024/04/07 03:09:27;;;;;;;21.27;2.90;;;;;;;10.88;100.00;100064.28;5041127;28;20041;-76
2024/04/07 03:11:56;;;;;;;16.38;2.47;;;;;;;10.90;100.00;100064.81;5037330;28;20035;-76
2024/04/07 03:14:22;;;;;;;13.27;1.83;;;;;;;10.89;100.00;100077.03;5067313;28;20597;-76
2024/04/07 03:16:48;;;;;;;9.88;2.28;;;;;;;10.87;100.00;100066.25;5041044;28;20032;-76
2024/04/07 03:19:14;;;;;;;14.65;2.25;;;;;;;10.83;100.00;100073.53;5041067;28;20049;-76
2024/04/07 03:21:39;;;;;;;13.82;2.50;;;;;;;10.83;100.00;100069.94;5042115;28;20488;-76
2024/04/07 03:24:05;;;;;;;12.63;2.15;;;;;;;10.74;100.00;100064.28;5008414;28;20044;-76
2024/04/07 03:26:30;;;;;;;13.07;2.00;;;;;;;10.73;100.00;100068.19;5023933;28;20041;-76
2024/04/07 03:28:56;;;;;;;17.38;2.88;;;;;;;10.76;100.00;100066.75;5041452;28;20037;-76
2024/04/07 03:31:21;;;;;;;21.90;2.78;;;;;;;10.72;100.00;100083.19;5021703;28;20079;-77
2024/04/07 03:33:48;;;;;;;17.17;2.67;;;;;;;10.72;100.00;100086.78;5067464;28;20047;-76
2024/04/07 03:36:13;;;;;;;16.98;2.53;;;;;;;10.72;100.00;100083.19;5037736;28;20112;-76
2024/04/07 03:38:38;;;;;;;15.73;2.50;;;;;;;10.70;100.00;100093.81;5024379;28;20040;-76
2024/04/07 03:41:04;;;;;;;11.95;2.08;;;;;;;10.66;100.00;100092.75;5040595;28;20086;-77
2024/04/07 03:43:30;;;;;;;15.90;2.60;;;;;;;10.64;100.00;100086.66;5040656;28;20072;-77
2024/04/07 03:46:02;;;;;;;19.42;2.90;;;;;;;10.66;100.00;100089.97;5037137;28;20156;-77
2024/04/07 03:48:28;;;;;;;20.67;2.70;;;;;;;10.62;100.00;100094.50;5034510;28;20037;-77
2024/04/07 03:50:54;;;;;;;13.63;2.00;;;;;;;10.59;100.00;100095.13;5032533;28;20033;-77
2024/04/07 03:53:19;;;;;;;13.65;2.13;;;;;;;10.59;100.00;100095.13;5024425;28;20047;-76
2024/04/07 03:55:45;;;;;;;16.63;2.75;;;;;;;10.57;100.00;100102.91;5027402;28;20036;-76
2024/04/07 03:58:10;;;;;;;22.77;2.92;;;;;;;10.56;100.00;100098.47;5011079;28;20032;-77
2024/04/07 04:00:36;;;;;;;13.57;2.70;;;;;;;10.56;100.00;100101.25;5059999;28;20052;-77
2024/04/07 04:03:03;;;;;;;15.18;2.17;;;;;;;10.51;100.00;100107.72;5043998;28;20056;-77
2024/04/07 04:05:29;;;;;;;13.32;2.35;;;;;;;10.48;100.00;100106.38;5028178;28;20040;-76
2024/04/07 04:07:55;;;;;;;14.05;2.15;;;;;;;10.48;100.00;100111.94;5023908;28;20037;-77
2024/04/07 04:10:20;;;;;;;14.05;2.45;;;;;;;10.42;100.00;100117.84;5042163;28;20661;-77
2024/04/07 04:12:46;;;;;;;11.57;2.28;;;;;;;10.44;100.00;100121.97;5027989;28;20033;-77
2024/04/07 04:15:11;;;;;;;14.45;2.35;;;;;;;10.47;100.00;100115.84;5010665;28;20097;-77
2024/04/07 04:17:37;;;;;;;15.52;2.42;;;;;;;10.45;100.00;100123.66;5027631;28;20043;-77
2024/04/07 04:20:03;;;;;;;11.57;2.13;;;;;;;10.41;100.00;100127.31;5010921;28;20037;-77
2024/04/07 04:22:28;;;;;;;17.80;2.40;;;;;;;10.37;100.00;100126.28;5027374;28;20076;-77
2024/04/07 04:24:55;;;;;;;19.08;2.25;;;;;;;10.38;100.00;100125.97;5043864;28;20154;-77
2024/04/07 04:27:21;;;;;;;16.48;2.47;;;;;;;10.32;100.00;100124.41;5010326;28;20036;-77
2024/04/07 04:29:47;;;;;;;12.75;2.10;;;;;;;10.36;100.00;100124.63;5043652;28;20493;-77
2024/04/07 04:32:12;;;;;;;19.52;2.88;;;;;;;10.32;100.00;100124.41;5027593;28;20036;-76
2024/04/07 04:34:38;;;;;;;15.52;2.28;;;;;;;10.33;100.00;100128.81;5043225;28;20032;-76
2024/04/07 04:37:04;;;;;;;10.07;2.22;;;;;;;10.32;100.00;100131.91;5039855;28;20098;-77
2024/04/07 04:39:29;;;;;;;15.52;2.70;;;;;;;10.33;100.00;100131.59;5042057;28;20048;-77
2024/04/07 04:41:55;;;;;;;15.27;2.65;;;;;;;10.33;100.00;100131.59;5043072;28;20040;-77
2024/04/07 04:44:21;;;;;;;14.77;2.03;;;;;;;10.30;100.00;100126.66;5010553;28;20124;-77
2024/04/07 04:46:47;;;;;;;15.02;2.28;;;;;;;10.33;100.00;100125.22;5043161;28;20039;-77
2024/04/07 04:49:16;;;;;;;15.02;2.35;;;;;;;10.31;100.00;100130.25;5077924;28;20041;-76
2024/04/07 04:51:41;;;;;;;12.85;2.13;;;;;;;10.32;100.00;100135.50;5043017;28;20439;-76
2024/04/07 04:54:07;;;;;;;15.20;2.45;;;;;;;10.28;100.00;100140.84;5026541;28;20245;-77
2024/04/07 04:56:32;;;;;;;16.23;2.47;;;;;;;10.29;100.00;100133.34;5026385;28;20040;-76
2024/04/07 04:58:58;;;;;;;17.58;2.75;;;;;;;10.25;100.00;100133.09;5042054;28;20029;-76
2024/04/07 05:01:24;;;;;;;16.33;2.55;;;;;;;10.27;100.00;100139.19;5039849;28;20049;-77
2024/04/07 05:03:50;;;;;;;19.77;2.35;;;;;;;10.26;100.00;100131.97;5009560;28;20131;-77
2024/04/07 05:06:16;;;;;;;15.00;1.85;;;;;;;10.27;100.00;100138.38;5008900;28;20036;-77
2024/04/07 05:08:42;;;;;;;12.75;2.58;;;;;;;10.24;100.00;100134.22;5010974;28;20029;-77
2024/04/07 05:11:07;;;;;;;21.35;3.17;;;;;;;10.25;100.00;100146.13;5042671;28;20063;-77
2024/04/07 05:13:33;;;;;;;16.73;3.13;;;;;;;10.26;100.00;100136.69;5026333;28;20043;-77
2024/04/07 05:15:59;;;;;;;17.33;2.75;;;;;;;10.23;100.00;100145.63;5025981;28;20119;-77
2024/04/07 05:18:27;;;;;;;16.02;2.70;;;;;;;10.22;100.00;100146.72;5058998;28;20032;-77
2024/04/07 05:20:53;;;;;;;14.63;2.72;;;;;;;10.20;100.00;100149.00;5042451;28;20051;-76
2024/04/07 05:23:19;;;;;;;21.77;2.88;;;;;;;10.19;100.00;100147.34;5042326;28;20271;-76
2024/04/07 05:25:44;;;;;;;16.85;2.90;;;;;;;10.21;100.00;100145.09;5025441;28;20051;-76
2024/04/07 05:28:11;;;;;;;12.50;3.25;;;;;;;10.20;100.00;100155.38;5026419;28;20044;-76
2024/04/07 05:30:36;;;;;;;18.45;2.47;;;;;;;10.15;100.00;100161.00;5042091;28;20102;-77
2024/04/07 05:33:02;;;;;;;14.88;2.40;;;;;;;10.17;100.00;100155.13;5058211;28;20040;-76
2024/04/07 05:35:28;;;;;;;16.40;2.35;;;;;;;10.18;100.00;100156.78;5021274;28;20064;-76
2024/04/07 05:37:53;;;;;;;24.27;2.60;;;;;;;10.16;100.00;100165.41;5041149;28;20808;-76
2024/04/07 05:40:19;;;;;;;20.17;2.50;;;;;;;10.17;100.00;100167.06;5041377;28;20041;-76
2024/04/07 05:42:44;;;;;;;17.67;2.67;;;;;;;10.17;100.00;100174.56;5025624;28;20473;-77
2024/04/07 05:45:10;;;;;;;19.77;3.35;;;;;;;10.19;100.00;100169.53;5041364;28;20633;-76
2024/04/07 05:47:35;;;;;;;17.85;2.80;;;;;;;10.19;100.00;100166.75;5025188;28;20032;-76
2024/04/07 05:50:00;;;;;;;15.35;2.38;;;;;;;10.16;100.00;100164.59;5024780;28;20033;-76
2024/04/07 05:52:26;;;;;;;18.05;2.58;;;;;;;10.14;100.00;100162.13;5037768;28;20818;-76
2024/04/07 05:54:52;;;;;;;16.77;2.35;;;;;;;10.15;100.00;100163.78;5034166;28;20090;-76
2024/04/07 05:57:17;;;;;;;11.35;2.30;;;;;;;10.17;100.00;100174.56;5040667;28;20032;-77
2024/04/07 05:59:45;;;;;;;15.10;2.38;;;;;;;10.18;100.00;100173.44;5058194;28;20024;-76
2024/04/07 06:02:11;;;;;;;18.45;2.40;;;;;;;10.21;100.00;100179.22;5025002;28;20071;-76
2024/04/07 06:04:36;;;;;;;18.00;3.00;;;;;;;10.20;100.00;100187.84;5041067;28;20041;-77
2024/04/07 06:07:02;;;;;;;19.33;2.58;;;;;;;10.20;100.00;100176.75;5057324;28;20047;-76
2024/04/07 06:09:27;;;;;;;17.05;2.58;;;;;;;10.20;100.00;100176.75;5057594;28;20501;-77
2024/04/07 06:11:53;;;;;;;17.00;2.80;;;;;;;10.23;100.00;100176.16;5021586;28;20032;-76
2024/04/07 06:14:18;;;;;;;17.65;2.65;;;;;;;10.23;100.00;100178.94;4999661;28;20035;-77
2024/04/07 06:16:44;;;;;;;18.58;2.63;;;;;;;10.28;100.00;100184.44;5040477;28;20043;-76
2024/04/07 06:19:09;;;;;;;18.58;2.60;;;;;;;10.28;100.00;100187.22;5037614;28;20508;-76
2024/04/07 06:21:34;;;;;;;16.35;2.38;;;;;;;10.38;100.00;100191.78;5038902;28;20094;-77
2024/04/07 06:24:00;;;;;;;23.00;2.20;;;;;;;10.42;100.00;100195.59;5041200;28;20044;-76
2024/04/07 06:26:26;;;;;;;10.43;2.03;;;;;;;10.46;100.00;100194.69;5024293;28;20487;-77
2024/04/07 06:28:51;;;;;;;19.45;2.70;;;;;;;10.53;100.00;100202.66;5024314;28;20041;-76
2024/04/07 06:31:17;;;;;;;17.35;2.30;;;;;;;10.59;100.00;100200.63;5024669;28;20043;-77
2024/04/07 06:33:42;;;;;;;25.20;3.33;;;;;;;10.68;100.00;100201.59;5057373;28;20059;-76
2024/04/07 06:36:08;;;;;;;15.13;2.33;;;;;;;10.74;100.00;100203.16;5056791;28;20032;-76
2024/04/07 06:38:34;;;;;;;21.42;2.85;;;;;;;10.79;100.00;100203.06;5020931;28;20033;-77
2024/04/07 06:41:00;;;;;;;16.67;2.75;;;;;;;10.84;100.00;100210.50;5055230;28;20037;-76
2024/04/07 06:43:25;;;;;;;19.58;2.10;;;;;;;10.87;100.00;100210.72;5024266;28;20460;-76
2024/04/07 06:45:51;;;;;;;15.10;2.70;;;;;;;10.93;100.00;100206.72;5037337;28;20033;-76
2024/04/07 06:48:16;;;;;;;14.68;2.60;;;;;;;10.99;100.00;100210.25;5022241;28;20055;-76
2024/04/07 06:50:42;;;;;;;14.80;2.83;;;;;;;11.03;100.00;100211.28;5055580;28;20037;-76
2024/04/07 06:53:07;;;;;;;19.10;2.53;;;;;;;11.09;100.00;100210.06;5056592;28;20044;-77
2024/04/07 06:55:32;;;;;;;24.50;3.00;;;;;;;11.15;100.00;100208.84;5017039;28;20033;-76
2024/04/07 06:57:58;;;;;;;13.05;2.25;;;;;;;11.25;100.00;100213.38;5038067;28;20043;-76
2024/04/07 07:00:23;;;;;;;14.38;1.98;;;;;;;11.36;100.00;100209.28;5039332;28;20072;-76
2024/04/07 07:02:49;;;;;;;16.48;2.55;;;;;;;11.46;100.00;100216.63;5039979;28;20053;-76
2024/04/07 07:05:14;;;;;;;14.20;2.20;;;;;;;11.58;100.00;100214.16;5056516;28;20041;-76
2024/04/07 07:07:40;;;;;;;18.95;2.35;;;;;;;11.68;100.00;100215.91;5036467;28;20037;-76
2024/04/07 07:10:06;;;;;;;16.75;2.63;;;;;;;11.79;100.00;100219.31;5007116;28;20044;-77
2024/04/07 07:12:31;;;;;;;15.48;2.65;;;;;;;11.89;100.00;100209.97;5021489;28;20041;-76
2024/04/07 07:14:57;;;;;;;12.40;2.25;;;;;;;12.02;100.00;100220.25;5004206;28;20056;-76
2024/04/07 07:17:23;;;;;;;12.13;2.55;;;;;;;12.12;100.00;100220.06;5021055;28;20029;-76
2024/04/07 07:19:49;;;;;;;12.90;2.00;;;;;;;12.24;100.00;100222.31;5038464;28;20120;-76
2024/04/07 07:22:14;;;;;;;18.42;2.53;;;;;;;12.37;100.00;100209.47;4999405;28;20044;-76
2024/04/07 07:24:40;;;;;;;15.70;2.47;;;;;;;12.50;100.00;100214.19;5024003;28;20082;-76
2024/04/07 07:27:05;;;;;;;18.10;2.28;;;;;;;12.64;100.00;100226.09;5024154;28;20045;-76
2024/04/07 07:29:30;;;;;;;15.43;2.40;;;;;;;12.81;100.00;100235.75;5077073;28;20082;-76
2024/04/07 07:31:59;;;;;;;14.55;1.95;;;;;;;12.95;100.00;100233.72;5061294;28;20052;-76
2024/04/07 07:34:25;;;;;;;19.50;2.85;;;;;;;13.10;100.00;100232.53;5032915;28;20577;-76
2024/04/07 07:36:51;;;;;;;16.02;2.47;;;;;;;13.26;100.00;100246.91;5044718;28;20044;-76
2024/04/07 07:39:17;;;;;;;19.08;2.28;;;;;;;13.41;100.00;100235.38;5011151;28;20127;-76
2024/04/07 07:41:42;;;;;;;20.45;3.00;;;;;;;13.58;100.00;100235.44;5078699;28;20434;-76
2024/04/07 07:44:08;;;;;;;19.70;2.75;;;;;;;13.73;100.00;100238.97;5044126;28;20040;-71
2024/04/07 07:46:33;;;;;;;13.77;2.17;;;;;;;13.88;100.00;100234.94;5044323;28;20037;-71
2024/04/07 07:48:59;;;;;;;15.10;2.20;;;;;;;14.02;100.00;100228.06;5027709;28;20040;-76
2024/04/07 07:51:24;;;;;;;13.55;2.50;;;;;;;14.16;100.00;100241.91;5027818;28;20653;-75
2024/04/07 07:53:50;;;;;;;16.52;2.58;;;;;;;14.30;100.00;100250.16;5027668;28;20040;-76
2024/04/07 07:56:15;;;;;;;14.50;2.50;;;;;;;14.41;100.00;100254.28;5027410;28;20086;-75
2024/04/07 07:58:41;;;;;;;20.92;2.70;;;;;;;14.53;100.00;100243.31;5043042;28;20056;-75
2024/04/07 08:01:07;;;;;;;18.77;2.60;;;;;;;14.67;100.00;100251.53;5078878;28;20118;-75
2024/04/07 08:03:32;;;;;;;21.05;2.53;;;;;;;14.80;100.00;100238.56;5043533;28;20055;-75
2024/04/07 08:05:58;;;;;;;12.18;2.05;;;;;;;14.94;100.00;100247.59;5043581;28;20128;-74
2024/04/07 08:08:23;;;;;;;19.10;3.08;;;;;;;15.12;100.00;100247.59;5036051;28;20089;-74
2024/04/07 08:10:49;;;;;;;16.05;2.80;;;;;;;15.29;100.00;100247.53;5026605;28;20107;-74
2024/04/07 08:13:15;;;;;;;13.98;2.80;;;;;;;15.42;100.00;100242.91;5043184;28;20040;-75
2024/04/07 08:15:44;;;;;;;17.63;2.20;;;;;;;15.53;100.00;100247.00;5043789;28;20041;-75
2024/04/07 08:18:10;;;;;;;17.80;2.95;;;;;;;15.63;100.00;100246.66;5043591;28;20384;-75
2024/04/07 08:20:36;;;;;;;23.80;2.72;;;;;;;15.75;100.00;100248.78;5040748;28;20132;-75
2024/04/07 08:23:01;;;;;;;14.88;2.60;;;;;;;15.84;100.00;100255.16;5043612;28;20080;-76
2024/04/07 08:25:27;;;;;;;20.73;2.47;;;;;;;15.94;100.00;100253.16;5043432;28;20044;-75
2024/04/07 08:27:52;;;;;;;15.25;2.03;;;;;;;16.09;100.00;100267.41;5026250;28;20029;-75
2024/04/07 08:30:18;;;;;;;12.43;2.25;;;;;;;16.15;100.00;100265.22;5010848;28;20037;-75
2024/04/07 08:32:44;;;;;;;14.25;2.13;;;;;;;16.29;100.00;100260.19;5010432;28;20174;-75
2024/04/07 08:35:10;;;;;;;16.60;2.15;;;;;;;16.44;100.00;100260.78;5010645;28;20365;-75
2024/04/07 08:37:38;;;;;;;10.80;1.83;;;;;;;16.55;100.00;100256.44;5042650;28;20049;-75
2024/04/07 08:40:05;;;;;;;17.27;2.83;;;;;;;16.68;100.00;100252.50;5043330;28;20037;-75
2024/04/07 08:42:31;;;;;;;15.15;2.25;;;;;;;16.80;100.00;100253.78;5035795;28;20037;-75
2024/04/07 08:44:56;;;;;;;15.45;1.88;;;;;;;16.85;100.00;100254.38;5021922;28;20044;-75
2024/04/07 08:47:22;;;;;;;16.92;2.22;;;;;;;16.92;100.00;100259.47;5042961;28;20094;-75
2024/04/07 08:49:48;;;;;;;15.20;2.42;;;;;;;17.02;100.00;100269.44;5051032;28;20059;-75
2024/04/07 08:52:13;;;;;;;18.20;2.67;;;;;;;17.12;100.00;100255.81;5026981;28;20036;-75
2024/04/07 08:54:39;;;;;;;16.48;2.45;;;;;;;17.20;100.00;100260.53;5010174;28;20036;-75
2024/04/07 08:57:08;;;;;;;13.23;2.33;;;;;;;17.35;100.00;100261.03;5041902;28;20032;-75
2024/04/07 08:59:33;;;;;;;11.45;1.70;;;;;;;17.44;100.00;100258.97;5010341;28;20044;-75
2024/04/07 09:01:59;;;;;;;12.63;1.85;;;;;;;17.53;100.00;100258.88;5026346;28;20447;-75
2024/04/07 09:04:25;;;;;;;9.95;2.20;;;;;;;17.55;100.00;100264.94;5077041;28;20796;-75
2024/04/07 09:06:51;;;;;;;14.40;2.13;;;;;;;17.61;100.00;100258.78;5055567;28;20462;-75
2024/04/07 09:09:17;;;;;;;14.02;2.25;;;;;;;17.68;100.00;100254.56;5068568;28;20123;-75
2024/04/07 09:11:46;;;;;;;14.10;2.22;;;;;;;17.78;100.00;100262.56;5025953;28;20048;-75
2024/04/07 09:14:12;;;;;;;12.95;1.80;;;;;;;17.85;100.00;100268.44;5043214;28;20504;-75
2024/04/07 09:16:37;;;;;;;15.35;2.63;;;;;;;17.93;100.00;100270.31;5039315;28;20040;-75
2024/04/07 09:19:03;;;;;;;13.52;1.88;;;;;;;18.06;100.00;100277.59;5033524;28;20043;-75
2024/04/07 09:21:29;;;;;;;12.60;1.98;;;;;;;18.18;100.00;100275.97;5019003;28;20043;-75
2024/04/07 09:23:54;;;;;;;15.95;2.25;;;;;;;18.26;100.00;100278.66;5033334;28;20049;-75
2024/04/07 09:26:20;;;;;;;12.10;2.08;;;;;;;18.37;100.00;100279.00;5018546;28;20043;-75
2024/04/07 09:28:45;;;;;;;11.65;1.90;;;;;;;18.52;100.00;100275.47;5050306;28;20048;-75
2024/04/07 09:31:11;;;;;;;9.93;2.22;;;;;;;18.63;100.00;100289.06;5039681;28;20033;-75
2024/04/07 09:33:37;;;;;;;13.50;1.70;;;;;;;18.71;100.00;100286.09;5026011;28;20047;-75
2024/04/07 09:36:02;;;;;;;9.20;1.70;;;;;;;18.84;100.00;100284.13;5042192;28;20036;-75
2024/04/07 09:38:28;;;;;;;15.65;2.05;;;;;;;18.96;100.00;100278.44;5009808;28;20067;-76
2024/04/07 09:40:59;;;;;;;14.63;1.73;;;;;;;19.06;100.00;100276.34;5038501;28;20037;-76
2024/04/07 09:43:29;;;;;;;12.93;1.80;;;;;;;19.15;100.00;100286.25;5058917;28;20442;-75
2024/04/07 09:45:54;;;;;;;14.52;1.90;;;;;;;19.25;100.00;100286.91;5025508;28;20036;-76
2024/04/07 09:48:20;;;;;;;12.93;1.98;;;;;;;19.32;100.00;100281.50;5042184;28;20036;-75
2024/04/07 09:50:58;;;;;;;12.52;1.95;;;;;;;19.42;100.00;100261.28;5049758;28;20032;-75
2024/04/07 09:53:27;;;;;;;8.18;1.35;;;;;;;19.50;100.00;100259.44;5032378;28;20435;-75
2024/04/07 09:55:52;;;;;;;10.43;1.63;;;;;;;19.58;100.00;100253.66;5041276;28;20047;-76
2024/04/07 09:58:18;;;;;;;11.63;2.17;;;;;;;19.58;100.00;100244.38;5057704;28;20396;-76
2024/04/07 10:00:43;;;;;;;13.05;2.05;;;;;;;19.62;100.00;100251.75;5041797;28;20033;-76
2024/04/07 10:03:10;;;;;;;7.85;1.45;;;;;;;19.66;100.00;100239.78;5025565;28;20055;-76
2024/04/07 10:05:35;;;;;;;9.18;1.73;;;;;;;19.71;100.00;100240.34;5039913;28;20083;-75
2024/04/07 10:08:01;;;;;;;10.63;1.73;;;;;;;19.73;100.00;100240.00;5021675;28;20492;-75
2024/04/07 10:10:26;;;;;;;9.05;2.00;;;;;;;19.86;100.00;100235.88;5024613;28;20033;-75
2024/04/07 10:12:53;;;;;;;9.85;2.08;;;;;;;19.95;100.00;100239.38;5088969;28;20447;-75
2024/04/07 10:15:20;;;;;;;10.05;1.67;;;;;;;20.03;100.00;100243.16;5058334;28;20092;-75
2024/04/07 10:17:45;;;;;;;8.02;1.33;;;;;;;19.95;100.00;100224.47;5041275;28;20032;-77
2024/04/07 10:20:14;;;;;;;10.80;1.77;;;;;;;19.83;100.00;100226.16;5025387;28;20040;-77
2024/04/07 10:22:42;;;;;;;7.40;1.23;;;;;;;19.72;98.02;100230.69;5016663;28;20033;-77
2024/04/07 10:25:07;;;;;;;11.05;1.90;;;;;;;19.60;95.49;100222.31;5025180;28;20469;-76
2024/04/07 10:27:40;;;;;;;8.75;1.30;;;;;;;19.63;95.75;100221.59;5053901;28;20100;-76
2024/04/07 10:30:05;;;;;;;10.00;1.52;;;;;;;19.71;98.16;100223.44;5025643;28;20089;-76
2024/04/07 10:32:36;;;;;;;13.02;1.90;;;;;;;19.84;96.04;100215.72;5041097;28;20037;-76
2024/04/07 10:35:09;;;;;;;12.00;1.45;;;;;;;19.90;98.92;100210.63;5025191;28;20072;-76
2024/04/07 10:37:37;;;;;;;8.73;1.45;;;;;;;19.91;100.00;100203.81;5041405;28;20028;-76
2024/04/07 10:40:08;;;;;;;9.10;1.90;;;;;;;20.01;99.18;100187.16;5038411;28;20033;-76
2024/04/07 10:42:37;;;;;;;11.80;2.08;;;;;;;20.09;98.98;100188.16;5074228;28;20127;-76
2024/04/07 10:45:03;;;;;;;13.35;1.98;;;;;;;20.19;100.00;100181.94;5024708;28;20048;-76
2024/04/07 10:47:32;;;;;;;11.60;1.88;;;;;;;20.27;97.61;100189.38;5024542;28;20036;-76
2024/04/07 10:49:58;;;;;;;12.70;2.05;;;;;;;20.38;98.30;100174.72;5048867;28;20064;-76
2024/04/07 10:52:26;;;;;;;12.65;2.10;;;;;;;20.45;94.03;100172.06;5019386;28;20095;-73
2024/04/07 10:54:58;;;;;;;15.70;2.20;;;;;;;20.52;92.87;100175.03;5025423;28;20044;-76
2024/04/07 10:57:23;;;;;;;10.57;2.07;;;;;;;20.67;89.72;100171.38;5040335;28;20025;-77
2024/04/07 10:59:49;;;;;;;9.35;1.70;;;;;;;20.68;90.72;100173.00;5040733;28;20089;-76
2024/04/07 11:02:14;;;;;;;8.60;1.75;;;;;;;20.71;92.64;100174.25;5056974;28;20083;-77
2024/04/07 11:04:40;;;;;;;9.38;1.65;;;;;;;20.74;91.38;100168.69;5047118;28;20385;-77
2024/04/07 11:07:06;;;;;;;12.75;2.13;;;;;;;20.78;92.86;100170.75;5045983;28;20108;-77
2024/04/07 11:09:31;;;;;;;12.02;1.83;;;;;;;20.83;91.53;100171.28;5087968;28;20041;-76
2024/04/07 11:11:58;;;;;;;13.10;2.13;;;;;;;20.85;91.26;100185.03;5028215;28;20187;-77